createdAt,value
2022-08-20T00:01:12.571Z,63.63
2022-08-20T00:03:41.618Z,62.74
2022-08-20T00:06:23.321Z,63.34
2022-08-20T00:08:50.969Z,62.23
2022-08-20T00:11:22.899Z,60.88
2022-08-20T00:13:55.625Z,60.15
2022-08-20T00:16:25.308Z,61.84
2022-08-20T00:18:52.239Z,63.14
2022-08-20T00:21:21.207Z,62.51
2022-08-20T00:23:52.343Z,63.31
2022-08-20T00:26:20.392Z,64.34
2022-08-20T00:28:47.532Z,64.25
2022-08-20T00:31:19.299Z,64.04
2022-08-20T00:33:47.134Z,63.99
2022-08-20T00:36:15.784Z,63.58
2022-08-20T00:38:44.226Z,64.01
2022-08-20T00:41:14.778Z,63.20
2022-08-20T00:43:52.189Z,62.07
2022-08-20T00:46:31.682Z,62.32
2022-08-20T00:49:02.510Z,62.62
2022-08-20T00:51:35.187Z,62.92
2022-08-20T00:54:07.320Z,61.92
2022-08-20T00:56:34.512Z,62.40
2022-08-20T00:59:05.150Z,63.16
2022-08-20T01:01:34.595Z,62.63
2022-08-20T01:04:21.404Z,61.69
2022-08-20T01:06:48.673Z,62.76
2022-08-20T01:09:15.433Z,63.44
2022-08-20T01:11:42.523Z,63.89
2022-08-20T01:14:30.176Z,63.75
2022-08-20T01:17:02.409Z,63.10
2022-08-20T01:19:35.155Z,63.59
2022-08-20T01:22:26.649Z,62.22
2022-08-20T01:25:05.066Z,62.61
2022-08-20T01:27:33.680Z,63.10
2022-08-20T01:30:09.904Z,62.47
2022-08-20T01:32:36.593Z,61.05
2022-08-20T01:35:04.858Z,60.87
2022-08-20T01:37:31.920Z,61.13
2022-08-20T01:39:59.152Z,61.44
2022-08-20T01:42:52.818Z,61.07
2022-08-20T01:45:28.009Z,62.20
2022-08-20T01:47:57.655Z,62.98
2022-08-20T01:50:27.537Z,61.70
2022-08-20T01:53:09.309Z,61.50
2022-08-20T01:55:38.219Z,61.59
2022-08-20T01:58:05.451Z,61.45
2022-08-20T02:00:32.644Z,62.09
2022-08-20T02:02:59.314Z,61.87
2022-08-20T02:05:30.618Z,63.17
2022-08-20T02:07:57.737Z,62.47
2022-08-20T02:10:24.644Z,62.32
2022-08-20T02:12:51.388Z,63.79
2022-08-20T02:15:34.742Z,62.86
2022-08-20T02:18:08.254Z,62.71
2022-08-20T02:20:36.453Z,63.13
2022-08-20T02:23:03.614Z,63.58
2022-08-20T02:25:32.829Z,63.68
2022-08-20T02:28:02.528Z,65.31
2022-08-20T02:30:40.444Z,65.18
2022-08-20T02:33:09.939Z,65.47
2022-08-20T02:35:38.447Z,64.22
2022-08-20T02:38:05.637Z,64.58
2022-08-20T02:40:33.256Z,65.56
2022-08-20T02:43:01.600Z,65.19
2022-08-20T02:45:30.340Z,64.72
2022-08-20T02:47:59.170Z,63.65
2022-08-20T02:50:27.208Z,63.20
2022-08-20T02:52:54.575Z,63.43
2022-08-20T02:55:25.935Z,64.51
2022-08-20T02:57:58.662Z,63.19
2022-08-20T03:00:27.453Z,64.36
2022-08-20T03:02:54.279Z,65.06
2022-08-20T03:05:21.063Z,65.97
2022-08-20T03:07:53.501Z,64.81
2022-08-20T03:10:29.870Z,63.21
2022-08-20T03:12:56.844Z,62.64
2022-08-20T03:15:23.992Z,62.83
2022-08-20T03:17:50.703Z,62.75
2022-08-20T03:20:17.480Z,62.79
2022-08-20T03:22:51.794Z,62.95
2022-08-20T03:25:18.606Z,62.72
2022-08-20T03:27:45.653Z,61.49
2022-08-20T03:30:15.006Z,62.17
2022-08-20T03:32:41.953Z,62.34
2022-08-20T03:35:16.212Z,61.74
2022-08-20T03:37:48.100Z,62.10
2022-08-20T03:40:21.064Z,62.57
2022-08-20T03:42:47.649Z,61.28
2022-08-20T03:45:19.799Z,61.14
2022-08-20T03:47:48.489Z,61.85
2022-08-20T03:50:23.546Z,62.89
2022-08-20T03:52:54.736Z,62.05
2022-08-20T03:55:23.251Z,62.81
2022-08-20T03:57:56.749Z,62.94
2022-08-20T04:00:28.102Z,64.08
2022-08-20T04:02:57.242Z,62.66
2022-08-20T04:05:30.175Z,62.63
2022-08-20T04:08:03.253Z,64.29
2022-08-20T04:10:31.490Z,64.64
2022-08-20T04:12:58.126Z,64.80
2022-08-20T04:15:26.209Z,65.49
2022-08-20T04:17:54.235Z,65.69
2022-08-20T04:20:25.956Z,65.66
2022-08-20T04:22:58.611Z,64.33
2022-08-20T04:25:35.868Z,64.33
2022-08-20T04:28:05.608Z,64.71
2022-08-20T04:30:33.096Z,64.21
2022-08-20T04:33:00.786Z,63.48
2022-08-20T04:35:28.876Z,62.83
2022-08-20T04:38:04.932Z,61.98
2022-08-20T04:41:06.926Z,62.96
2022-08-20T04:43:35.957Z,62.76
2022-08-20T04:46:06.702Z,63.73
2022-08-20T04:48:33.711Z,63.84
2022-08-20T04:51:02.159Z,63.65
2022-08-20T04:53:31.057Z,63.47
2022-08-20T04:56:00.889Z,62.74
2022-08-20T04:58:34.480Z,63.41
2022-08-20T05:01:05.269Z,63.28
2022-08-20T05:03:32.978Z,63.97
2022-08-20T05:06:01.401Z,64.74
2022-08-20T05:08:29.306Z,63.91
2022-08-20T05:11:24.973Z,64.07
2022-08-20T05:13:44.322Z,63.49
2022-08-20T05:16:11.012Z,63.92
2022-08-20T05:18:37.653Z,64.11
2022-08-20T05:21:06.207Z,63.84
2022-08-20T05:23:39.710Z,63.81
2022-08-20T05:26:07.646Z,63.89
2022-08-20T05:28:36.887Z,63.34
2022-08-20T05:31:21.152Z,63.26
2022-08-20T05:33:51.742Z,63.04
2022-08-20T05:36:18.538Z,63.22
2022-08-20T05:38:45.271Z,64.20
2022-08-20T05:41:27.558Z,64.65
2022-08-20T05:44:01.499Z,64.09
2022-08-20T05:46:31.846Z,63.96
2022-08-20T05:49:00.114Z,64.46
2022-08-20T05:51:28.589Z,64.15
2022-08-20T05:53:57.981Z,64.31
2022-08-20T05:56:26.941Z,63.38
2022-08-20T05:58:53.878Z,62.95
2022-08-20T06:01:20.756Z,61.27
2022-08-20T06:04:06.049Z,60.26
2022-08-20T06:06:45.156Z,60.27
2022-08-20T06:09:14.470Z,61.04
2022-08-20T06:11:41.308Z,58.98
2022-08-20T06:14:08.201Z,59.02
2022-08-20T06:16:35.002Z,59.48
2022-08-20T06:19:05.527Z,58.06
2022-08-20T06:21:32.252Z,58.74
2022-08-20T06:24:00.552Z,58.61
2022-08-20T06:26:29.974Z,59.11
2022-08-20T06:28:58.567Z,56.07
2022-08-20T06:31:25.354Z,58.26
2022-08-20T06:33:52.149Z,57.75
2022-08-20T06:36:19.516Z,56.69
2022-08-20T06:38:47.022Z,57.52
2022-08-20T06:41:14.217Z,56.28
2022-08-20T06:43:40.910Z,56.55
2022-08-20T06:46:08.340Z,56.95
2022-08-20T06:48:37.173Z,55.87
2022-08-20T06:51:06.550Z,56.56
2022-08-20T06:53:33.151Z,55.61
2022-08-20T06:55:59.992Z,54.95
2022-08-20T06:58:36.856Z,55.41
2022-08-20T07:01:10.270Z,56.14
2022-08-20T07:03:39.090Z,55.79
2022-08-20T07:06:06.611Z,55.73
2022-08-20T07:08:34.114Z,55.90
2022-08-20T07:11:00.957Z,55.54
2022-08-20T07:13:29.261Z,52.05
2022-08-20T07:15:56.384Z,52.68
2022-08-20T07:18:28.303Z,54.14
2022-08-20T07:21:04.450Z,54.31
2022-08-20T07:23:31.787Z,52.39
2022-08-20T07:25:59.152Z,53.64
2022-08-20T07:28:31.933Z,52.35
2022-08-20T07:31:17.874Z,53.37
2022-08-20T07:33:47.392Z,53.84
2022-08-20T07:36:17.990Z,51.64
2022-08-20T07:38:48.926Z,53.99
2022-08-20T07:41:15.624Z,52.76
2022-08-20T07:43:45.780Z,51.71
2022-08-20T07:46:15.003Z,53.63
2022-08-20T07:48:46.871Z,53.83
2022-08-20T07:51:17.904Z,52.93
2022-08-20T07:53:46.923Z,52.36
2022-08-20T07:56:17.666Z,52.90
2022-08-20T07:58:50.576Z,53.37
2022-08-20T08:01:28.673Z,51.12
2022-08-20T08:03:57.650Z,53.17
2022-08-20T08:06:29.278Z,50.63
2022-08-20T08:09:17.594Z,52.97
2022-08-20T08:11:51.830Z,51.20
2022-08-20T08:14:24.988Z,48.60
2022-08-20T08:16:57.381Z,48.48
2022-08-20T08:19:27.052Z,50.61
2022-08-20T08:22:02.111Z,51.24
2022-08-20T08:24:29.059Z,50.98
2022-08-20T08:26:55.765Z,50.27
2022-08-20T08:29:22.497Z,50.07
2022-08-20T08:31:49.189Z,50.10
2022-08-20T08:34:15.959Z,49.57
2022-08-20T08:36:44.229Z,50.15
2022-08-20T08:39:11.044Z,49.40
2022-08-20T08:41:49.761Z,50.00
2022-08-20T08:44:23.283Z,48.01
2022-08-20T08:46:53.673Z,48.13
2022-08-20T08:49:33.932Z,50.01
2022-08-20T08:52:28.659Z,47.88
2022-08-20T08:54:58.764Z,50.08
2022-08-20T08:57:26.142Z,47.30
2022-08-20T09:00:04.713Z,48.51
2022-08-20T09:02:34.068Z,49.91
2022-08-20T09:05:09.253Z,48.99
2022-08-20T09:07:36.575Z,49.49
2022-08-20T09:10:03.800Z,48.40
2022-08-20T09:12:30.544Z,49.51
2022-08-20T09:14:57.565Z,48.59
2022-08-20T09:17:24.661Z,49.74
2022-08-20T09:19:52.575Z,48.11
2022-08-20T09:22:22.266Z,48.27
2022-08-20T09:24:50.213Z,45.84
2022-08-20T09:27:17.324Z,47.98
2022-08-20T09:29:44.212Z,47.94
2022-08-20T09:32:16.608Z,48.71
2022-08-20T09:34:51.819Z,48.26
2022-08-20T09:37:19.322Z,46.90
2022-08-20T09:39:46.057Z,45.99
2022-08-20T09:42:22.571Z,45.97
2022-08-20T09:44:49.607Z,47.91
2022-08-20T09:47:17.612Z,47.82
2022-08-20T09:49:45.336Z,48.16
2022-08-20T09:52:22.727Z,44.45
2022-08-20T09:54:50.517Z,46.31
2022-08-20T09:57:18.208Z,46.45
2022-08-20T09:59:48.711Z,44.14
2022-08-20T10:02:15.394Z,42.39
2022-08-20T10:04:49.212Z,44.26
2022-08-20T10:07:16.145Z,43.50
2022-08-20T10:09:43.200Z,45.00
2022-08-20T10:12:10.133Z,43.73
2022-08-20T10:14:36.800Z,43.91
2022-08-20T10:17:04.092Z,43.03
2022-08-20T10:19:31.631Z,40.42
2022-08-20T10:21:59.897Z,42.79
2022-08-20T10:24:27.184Z,38.90
2022-08-20T10:26:58.980Z,38.13
2022-08-20T10:29:26.668Z,41.78
2022-08-20T10:31:55.026Z,40.91
2022-08-20T10:34:21.663Z,39.51
2022-08-20T10:36:49.753Z,39.80
2022-08-20T10:39:16.622Z,39.63
2022-08-20T10:41:43.319Z,39.24
2022-08-20T10:44:10.300Z,39.86
2022-08-20T10:46:36.908Z,39.79
2022-08-20T10:49:03.979Z,40.73
2022-08-20T10:51:32.493Z,39.96
2022-08-20T10:54:00.336Z,39.38
2022-08-20T10:56:26.987Z,40.19
2022-08-20T10:58:53.790Z,39.89
2022-08-20T11:01:31.462Z,38.20
2022-08-20T11:04:00.878Z,38.87
2022-08-20T11:06:27.634Z,38.73
2022-08-20T11:08:54.297Z,40.03
2022-08-20T11:11:23.920Z,41.08
2022-08-20T11:13:50.662Z,40.21
2022-08-20T11:16:17.393Z,40.94
2022-08-20T11:18:47.331Z,39.93
2022-08-20T11:21:14.622Z,40.47
2022-08-20T11:23:41.353Z,37.50
2022-08-20T11:26:08.645Z,38.69
2022-08-20T11:28:36.753Z,37.58
2022-08-20T11:31:03.472Z,37.99
2022-08-20T11:33:30.367Z,38.46
2022-08-20T11:35:57.165Z,38.01
2022-08-20T11:38:24.004Z,38.06
2022-08-20T11:40:50.867Z,38.67
2022-08-20T11:43:18.320Z,37.24
2022-08-20T11:45:50.682Z,35.09
2022-08-20T11:48:18.244Z,36.64
2022-08-20T11:50:46.259Z,36.22
2022-08-20T11:53:13.063Z,36.75
2022-08-20T11:55:41.726Z,36.09
2022-08-20T11:58:09.623Z,36.24
2022-08-20T12:00:37.218Z,37.29
2022-08-20T12:03:09.588Z,36.38
2022-08-20T12:05:38.546Z,35.76
2022-08-20T12:08:06.188Z,33.85
2022-08-20T12:10:34.453Z,32.11
2022-08-20T12:13:02.662Z,32.71
2022-08-20T12:15:32.574Z,33.47
2022-08-20T12:17:59.479Z,31.97
2022-08-20T12:20:26.314Z,34.45
2022-08-20T12:22:54.122Z,32.35
2022-08-20T12:25:21.065Z,30.94
2022-08-20T12:27:47.948Z,30.57
2022-08-20T12:30:18.764Z,31.62
2022-08-20T12:32:46.113Z,33.28
2022-08-20T12:35:16.153Z,31.43
2022-08-20T12:37:44.192Z,31.99
2022-08-20T12:40:15.776Z,31.71
2022-08-20T12:42:43.878Z,32.68
2022-08-20T12:45:11.358Z,33.65
2022-08-20T12:47:40.836Z,32.02
2022-08-20T12:50:29.680Z,31.98
2022-08-20T12:52:59.348Z,33.95
2022-08-20T12:55:26.158Z,33.59
2022-08-20T12:57:56.698Z,29.84
2022-08-20T13:00:30.164Z,30.18
2022-08-20T13:02:59.288Z,31.89
2022-08-20T13:05:28.300Z,32.12
2022-08-20T13:07:55.839Z,33.17
2022-08-20T13:10:29.017Z,31.27
2022-08-20T13:12:56.103Z,31.83
2022-08-20T13:15:23.837Z,34.22
2022-08-20T13:17:55.128Z,36.14
2022-08-20T13:20:25.661Z,35.31
2022-08-20T13:22:58.100Z,32.51
2022-08-20T13:25:25.515Z,34.43
2022-08-20T13:27:58.721Z,30.36
2022-08-20T13:30:26.427Z,32.01
2022-08-20T13:33:01.416Z,32.91
2022-08-20T13:35:28.387Z,33.48
2022-08-20T13:37:55.181Z,32.15
2022-08-20T13:40:22.089Z,31.28
2022-08-20T13:42:49.075Z,31.96
2022-08-20T13:45:15.980Z,30.32
2022-08-20T13:47:42.977Z,35.48
2022-08-20T13:50:20.762Z,33.62
2022-08-20T13:52:48.390Z,34.86
2022-08-20T13:55:18.995Z,34.72
2022-08-20T13:57:47.236Z,36.91
2022-08-20T14:00:18.230Z,38.28
2022-08-20T14:02:45.011Z,35.68
2022-08-20T14:05:12.237Z,34.05
2022-08-20T14:07:43.616Z,38.30
2022-08-20T14:10:18.250Z,38.89
2022-08-20T14:12:46.421Z,32.33
2022-08-20T14:15:13.463Z,33.12
2022-08-20T14:17:43.468Z,33.26
2022-08-20T14:20:14.165Z,30.94
2022-08-20T14:22:42.657Z,31.74
2022-08-20T14:25:11.982Z,33.72
2022-08-20T14:27:39.227Z,37.47
2022-08-20T14:30:09.557Z,37.93
2022-08-20T14:32:36.433Z,40.00
2022-08-20T14:35:03.279Z,41.13
2022-08-20T14:37:33.111Z,39.82
2022-08-20T14:40:01.628Z,41.54
2022-08-20T14:42:29.892Z,36.97
2022-08-20T14:44:59.354Z,39.54
2022-08-20T14:47:34.760Z,39.39
2022-08-20T14:50:06.506Z,39.58
2022-08-20T14:52:36.648Z,39.46
2022-08-20T14:55:06.052Z,41.17
2022-08-20T14:57:34.011Z,40.02
2022-08-20T15:00:01.063Z,39.54
2022-08-20T15:02:27.921Z,40.95
2022-08-20T15:04:55.682Z,38.71
2022-08-20T15:07:31.841Z,38.99
2022-08-20T15:10:00.527Z,38.45
2022-08-20T15:12:27.910Z,39.90
2022-08-20T15:14:55.393Z,40.39
2022-08-20T15:17:26.674Z,38.03
2022-08-20T15:19:53.973Z,35.56
2022-08-20T15:22:22.071Z,37.74
2022-08-20T15:24:49.155Z,37.80
2022-08-20T15:27:22.866Z,37.93
2022-08-20T15:29:51.152Z,37.01
2022-08-20T15:32:19.092Z,37.75
2022-08-20T15:34:47.626Z,38.19
2022-08-20T15:37:20.981Z,35.14
2022-08-20T15:39:48.708Z,38.95
2022-08-20T15:42:16.039Z,35.97
2022-08-20T15:44:43.825Z,38.39
2022-08-20T15:47:16.405Z,36.92
2022-08-20T15:49:44.381Z,39.20
2022-08-20T15:52:11.909Z,40.46
2022-08-20T15:54:39.270Z,39.20
2022-08-20T15:57:11.969Z,40.32
2022-08-20T16:00:20.888Z,40.67
2022-08-20T16:02:53.561Z,38.83
2022-08-20T16:05:28.037Z,37.31
2022-08-20T16:08:30.465Z,40.82
2022-08-20T16:11:33.107Z,39.46
2022-08-20T16:14:07.513Z,36.05
2022-08-20T16:17:30.154Z,37.90
2022-08-20T16:20:08.906Z,40.38
2022-08-20T16:22:41.197Z,41.12
2022-08-20T16:25:08.954Z,42.05
2022-08-20T16:27:57.229Z,42.42
2022-08-20T16:30:36.464Z,42.13
2022-08-20T16:33:15.047Z,42.45
2022-08-20T16:35:57.102Z,41.54
2022-08-20T16:38:28.695Z,42.22
2022-08-20T16:41:01.514Z,41.98
2022-08-20T16:43:51.327Z,42.49
2022-08-20T16:46:21.214Z,42.46
2022-08-20T16:48:58.021Z,42.01
2022-08-20T16:51:51.925Z,41.91
2022-08-20T16:54:31.050Z,42.45
2022-08-20T16:57:06.400Z,42.52
2022-08-20T16:59:33.718Z,42.71
2022-08-20T17:02:10.485Z,42.97
2022-08-20T17:04:59.594Z,43.21
2022-08-20T17:07:54.638Z,41.82
2022-08-20T17:10:28.096Z,41.79
2022-08-20T17:13:13.562Z,42.44
2022-08-20T17:15:44.027Z,42.61
2022-08-20T17:18:38.653Z,43.14
2022-08-20T17:21:23.066Z,42.38
2022-08-20T17:24:04.165Z,42.72
2022-08-20T17:26:42.908Z,42.80
2022-08-20T17:29:25.948Z,42.62
2022-08-20T17:32:26.365Z,43.30
2022-08-20T17:35:01.556Z,43.18
2022-08-20T17:37:33.503Z,43.20
2022-08-20T17:40:08.943Z,42.65
2022-08-20T17:43:01.409Z,43.01
2022-08-20T17:45:42.319Z,43.03
2022-08-20T17:48:16.970Z,42.47
2022-08-20T17:50:44.278Z,42.97
2022-08-20T17:53:34.147Z,42.66
2022-08-20T17:56:21.551Z,42.65
2022-08-20T17:59:03.190Z,43.07
2022-08-20T18:01:30.322Z,43.05
2022-08-20T18:03:58.093Z,43.96
2022-08-20T18:06:30.657Z,43.56
2022-08-20T18:09:06.900Z,43.91
2022-08-20T18:11:43.403Z,43.43
2022-08-20T18:14:28.836Z,42.99
2022-08-20T18:16:58.361Z,43.20
2022-08-20T18:19:52.475Z,43.42
2022-08-20T18:22:25.061Z,43.61
2022-08-20T18:25:02.774Z,43.72
2022-08-20T18:27:40.025Z,44.21
2022-08-20T18:30:18.933Z,44.06
2022-08-20T18:32:48.167Z,44.83
2022-08-20T18:35:23.866Z,44.32
2022-08-20T18:37:50.612Z,44.99
2022-08-20T18:40:33.221Z,44.28
2022-08-20T18:43:31.678Z,44.74
2022-08-20T18:46:14.563Z,43.95
2022-08-20T18:48:51.453Z,44.04
2022-08-20T18:51:21.038Z,44.26
2022-08-20T18:53:51.919Z,44.84
2022-08-20T18:56:33.477Z,44.77
2022-08-20T18:59:05.484Z,44.86
2022-08-20T19:01:36.069Z,45.29
2022-08-20T19:04:16.738Z,44.81
2022-08-20T19:07:03.767Z,45.56
2022-08-20T19:09:46.322Z,45.81
2022-08-20T19:12:35.140Z,46.40
2022-08-20T19:15:11.782Z,46.14
2022-08-20T19:17:56.718Z,46.29
2022-08-20T19:20:28.285Z,47.07
2022-08-20T19:23:03.442Z,46.35
2022-08-20T19:25:38.092Z,45.85
2022-08-20T19:28:20.549Z,47.73
2022-08-20T19:30:47.577Z,47.48
2022-08-20T19:33:14.398Z,47.47
2022-08-20T19:35:41.127Z,47.17
2022-08-20T19:38:15.556Z,47.66
2022-08-20T19:40:46.228Z,47.51
2022-08-20T19:43:17.153Z,48.03
2022-08-20T19:45:54.564Z,47.80
2022-08-20T19:48:43.451Z,47.67
2022-08-20T19:51:53.277Z,47.85
2022-08-20T19:54:27.093Z,47.76
2022-08-20T19:57:06.860Z,48.05
2022-08-20T19:59:33.754Z,48.08
2022-08-20T20:02:20.641Z,48.40
2022-08-20T20:04:55.011Z,49.13
2022-08-20T20:07:45.513Z,48.46
2022-08-20T20:10:28.358Z,48.63
2022-08-20T20:12:57.947Z,48.85
2022-08-20T20:15:25.732Z,48.86
2022-08-20T20:17:54.081Z,49.01
2022-08-20T20:20:30.687Z,49.32
2022-08-20T20:23:06.345Z,48.80
2022-08-20T20:25:34.144Z,49.36
2022-08-20T20:28:24.397Z,49.88
2022-08-20T20:30:51.113Z,49.77
2022-08-20T20:33:26.347Z,50.44
2022-08-20T20:36:35.307Z,50.78
2022-08-20T20:39:12.398Z,50.17
2022-08-20T20:41:52.161Z,50.95
2022-08-20T20:44:23.216Z,50.67
2022-08-20T20:46:55.040Z,50.50
2022-08-20T20:49:29.559Z,51.09
2022-08-20T20:52:01.387Z,51.15
2022-08-20T20:54:40.983Z,50.87
2022-08-20T20:57:16.893Z,50.91
2022-08-20T20:59:43.901Z,50.79
2022-08-20T21:02:10.622Z,51.51
2022-08-20T21:04:40.721Z,51.06
2022-08-20T21:07:10.310Z,52.09
2022-08-20T21:09:39.299Z,51.88
2022-08-20T21:12:06.866Z,51.78
2022-08-20T21:14:34.271Z,52.14
2022-08-20T21:17:03.213Z,52.12
2022-08-20T21:19:30.461Z,52.44
2022-08-20T21:21:57.104Z,52.71
2022-08-20T21:24:23.951Z,52.53
2022-08-20T21:26:51.525Z,51.93
2022-08-20T21:29:32.707Z,52.21
2022-08-20T21:32:00.244Z,52.21
2022-08-20T21:34:27.036Z,52.42
2022-08-20T21:36:53.729Z,51.58
2022-08-20T21:39:21.445Z,51.12
2022-08-20T21:41:48.530Z,51.55
2022-08-20T21:44:26.094Z,52.13
2022-08-20T21:46:54.713Z,52.21
2022-08-20T21:49:22.701Z,52.91
2022-08-20T21:51:50.396Z,51.86
2022-08-20T21:54:17.786Z,52.51
2022-08-20T21:56:49.573Z,52.34
2022-08-20T21:59:17.234Z,51.94
2022-08-20T22:01:43.986Z,51.74
2022-08-20T22:04:10.765Z,52.04
2022-08-20T22:06:37.457Z,52.03
2022-08-20T22:09:04.759Z,52.14
2022-08-20T22:11:31.518Z,51.55
2022-08-20T22:13:58.124Z,51.75
2022-08-20T22:16:25.429Z,51.83
2022-08-20T22:18:52.757Z,51.49
2022-08-20T22:21:28.345Z,51.85
2022-08-20T22:24:00.200Z,52.08
2022-08-20T22:26:27.560Z,51.98
2022-08-20T22:28:54.662Z,51.86
2022-08-20T22:31:26.105Z,51.89
2022-08-20T22:33:52.902Z,51.77
2022-08-20T22:36:19.650Z,51.95
2022-08-20T22:38:52.787Z,52.51
2022-08-20T22:41:22.683Z,52.61
2022-08-20T22:43:56.669Z,52.89
2022-08-20T22:46:26.849Z,53.17
2022-08-20T22:48:54.234Z,52.10
2022-08-20T22:51:26.883Z,52.02
2022-08-20T22:53:53.713Z,52.20
2022-08-20T22:56:21.807Z,52.28
2022-08-20T22:58:50.311Z,52.28
2022-08-20T23:01:18.400Z,52.56
2022-08-20T23:03:45.391Z,52.86
2022-08-20T23:06:12.931Z,51.54
2022-08-20T23:08:40.651Z,52.16
2022-08-20T23:11:07.639Z,51.86
2022-08-20T23:13:34.615Z,52.53
2022-08-20T23:16:01.761Z,53.19
2022-08-20T23:18:29.466Z,53.56
2022-08-20T23:20:57.513Z,53.30
2022-08-20T23:23:26.550Z,53.71
2022-08-20T23:25:54.002Z,53.45
2022-08-20T23:28:24.663Z,53.13
2022-08-20T23:30:51.997Z,53.52
2022-08-20T23:33:19.136Z,53.61
2022-08-20T23:35:46.304Z,54.03
2022-08-20T23:38:13.702Z,54.06
2022-08-20T23:40:41.358Z,54.23
2022-08-20T23:43:09.596Z,53.96
2022-08-20T23:45:39.626Z,54.57
2022-08-20T23:48:07.934Z,53.73
2022-08-20T23:50:34.731Z,53.27
2022-08-20T23:53:01.523Z,53.69
2022-08-20T23:55:28.241Z,53.42
2022-08-20T23:57:55.043Z,54.04
